Forside
METAR-TAF:

METAR-TAF

Lufthavne :

Esbjerg Lufthavn

Esbjerg, Danmark

Breddekreds: 55-32N, længdekreds: 008-34E, højde: 30 m

Aktuelle vejr

Denne rapport blev lavet for 30 minutter siden, kl. 21:20 UTC
Vind 8 kt fra nordnordvest
Temperatur 3°C
Fugtighed 81%
Tryk 1011 hPa
Sigt 10 km eller mere

METAR: EKEB 192120Z AUTO 34008KT 9999 NCD 03/00 Q1011

Tid: 23:50 (21:50 UTC)

Vejrudsigter

Denne rapport blev lavet for 4 timer og 27 minutter siden, kl. 17:23 UTC
Foreløbig gælder fra 19 på 18 UTC til 19 på 22 UTC
Vind 8 kt fra nord
Sigt 10 km eller mere
Spredte skyer i en højde af 3000 ft

TAF: EKEB 191723Z 1918/1922 35008KT 9999 SCT030

Vejrobservationer og prognoser fra mere end 4000 lufthavne (METAR og TAF).

De gule og røde prikker repræsenterer de meteorologiske stationer.

Flyt musen over at se navnet på stationen.

Så klik over at se vejr observationer og prognoser.

At skifte det kort: Klik på de grønne knapper med et sort kors for at zoome ind; på den grønne knap med en bindestreg for at zoome ud; eller på de grønne pile for tilstødende kort.


METAR-TAF: